sensor_id;sensor_type;location;lat;lon;timestamp;pressure;altitude;pressure_sealevel;temperature;humidity
13209;BME280;6669;42.678;23.332;2023-04-08T00:00:04;94622.50;;;5.48;100.00
13209;BME280;6669;42.678;23.332;2023-04-08T00:02:33;94628.19;;;5.42;100.00
13209;BME280;6669;42.678;23.332;2023-04-08T00:05:02;94628.91;;;5.34;100.00
13209;BME280;6669;42.678;23.332;2023-04-08T00:07:30;94634.06;;;5.34;100.00
13209;BME280;6669;42.678;23.332;2023-04-08T00:10:00;94626.47;;;5.33;100.00
13209;BME280;6669;42.678;23.332;2023-04-08T00:12:28;94627.03;;;5.27;100.00
13209;BME280;6669;42.678;23.332;2023-04-08T00:14:56;94618.63;;;5.24;100.00
13209;BME280;6669;42.678;23.332;2023-04-08T00:17:24;94626.63;;;5.21;100.00
13209;BME280;6669;42.678;23.332;2023-04-08T00:19:52;94627.88;;;5.17;100.00
13209;BME280;6669;42.678;23.332;2023-04-08T00:22:20;94629.06;;;5.23;100.00
13209;BME280;6669;42.678;23.332;2023-04-08T00:24:48;94622.72;;;5.17;100.00
13209;BME280;6669;42.678;23.332;2023-04-08T00:27:18;94622.03;;;5.15;100.00
13209;BME280;6669;42.678;23.332;2023-04-08T00:29:46;94617.69;;;5.16;100.00
13209;BME280;6669;42.678;23.332;2023-04-08T00:32:14;94623.81;;;5.15;100.00
13209;BME280;6669;42.678;23.332;2023-04-08T00:34:42;94624.50;;;5.17;100.00
13209;BME280;6669;42.678;23.332;2023-04-08T00:37:10;94623.66;;;5.26;100.00
13209;BME280;6669;42.678;23.332;2023-04-08T00:39:37;94630.69;;;5.24;100.00
13209;BME280;6669;42.678;23.332;2023-04-08T00:42:05;94623.91;;;5.23;100.00
13209;BME280;6669;42.678;23.332;2023-04-08T00:44:35;94623.94;;;5.13;100.00
13209;BME280;6669;42.678;23.332;2023-04-08T00:47:03;94632.47;;;5.14;100.00
13209;BME280;6669;42.678;23.332;2023-04-08T00:49:31;94625.59;;;5.04;100.00
13209;BME280;6669;42.678;23.332;2023-04-08T00:51:59;94627.56;;;5.20;100.00
13209;BME280;6669;42.678;23.332;2023-04-08T00:54:27;94627.47;;;5.22;100.00
13209;BME280;6669;42.678;23.332;2023-04-08T00:56:55;94625.69;;;5.22;100.00
13209;BME280;6669;42.678;23.332;2023-04-08T00:59:26;94630.56;;;5.26;100.00
13209;BME280;6669;42.678;23.332;2023-04-08T01:02:06;94633.44;;;5.13;100.00
13209;BME280;6669;42.678;23.332;2023-04-08T01:04:43;94634.66;;;5.18;100.00
13209;BME280;6669;42.678;23.332;2023-04-08T01:07:20;94642.25;;;5.10;100.00
13209;BME280;6669;42.678;23.332;2023-04-08T01:09:53;94641.84;;;5.15;100.00
13209;BME280;6669;42.678;23.332;2023-04-08T01:12:24;94640.06;;;5.15;100.00
13209;BME280;6669;42.678;23.332;2023-04-08T01:14:57;94629.34;;;5.10;100.00
13209;BME280;6669;42.678;23.332;2023-04-08T01:17:28;94639.97;;;5.07;100.00
13209;BME280;6669;42.678;23.332;2023-04-08T01:19:59;94640.06;;;5.15;100.00
13209;BME280;6669;42.678;23.332;2023-04-08T01:22:36;94631.53;;;5.05;100.00
13209;BME280;6669;42.678;23.332;2023-04-08T01:25:11;94630.47;;;4.98;100.00
13209;BME280;6669;42.678;23.332;2023-04-08T01:27:43;94633.84;;;4.98;100.00
13209;BME280;6669;42.678;23.332;2023-04-08T01:30:13;94638.22;;;4.98;100.00
13209;BME280;6669;42.678;23.332;2023-04-08T01:32:42;94622.34;;;4.83;100.00
13209;BME280;6669;42.678;23.332;2023-04-08T01:35:10;94634.94;;;4.96;100.00
13209;BME280;6669;42.678;23.332;2023-04-08T01:37:39;94632.91;;;4.89;100.00
13209;BME280;6669;42.678;23.332;2023-04-08T01:40:10;94632.66;;;4.93;100.00
13209;BME280;6669;42.678;23.332;2023-04-08T01:42:38;94633.31;;;4.85;100.00
13209;BME280;6669;42.678;23.332;2023-04-08T01:45:09;94635.88;;;4.85;100.00
13209;BME280;6669;42.678;23.332;2023-04-08T01:47:38;94636.19;;;4.82;100.00
13209;BME280;6669;42.678;23.332;2023-04-08T01:50:08;94639.84;;;4.79;100.00
13209;BME280;6669;42.678;23.332;2023-04-08T01:52:37;94640.94;;;4.86;100.00
13209;BME280;6669;42.678;23.332;2023-04-08T01:55:07;94642.53;;;4.87;100.00
13209;BME280;6669;42.678;23.332;2023-04-08T01:57:36;94637.13;;;5.00;100.00
13209;BME280;6669;42.678;23.332;2023-04-08T02:00:08;94639.13;;;5.06;100.00
13209;BME280;6669;42.678;23.332;2023-04-08T02:02:38;94648.63;;;5.06;100.00
13209;BME280;6669;42.678;23.332;2023-04-08T02:05:08;94650.25;;;4.97;100.00
13209;BME280;6669;42.678;23.332;2023-04-08T02:07:36;94652.44;;;4.92;100.00
13209;BME280;6669;42.678;23.332;2023-04-08T02:10:05;94651.34;;;4.95;100.00
13209;BME280;6669;42.678;23.332;2023-04-08T02:12:35;94663.16;;;4.78;100.00
13209;BME280;6669;42.678;23.332;2023-04-08T02:15:04;94660.28;;;4.81;100.00
13209;BME280;6669;42.678;23.332;2023-04-08T02:17:37;94665.47;;;4.71;100.00
13209;BME280;6669;42.678;23.332;2023-04-08T02:20:10;94664.22;;;4.85;100.00
13209;BME280;6669;42.678;23.332;2023-04-08T02:22:41;94659.75;;;4.77;100.00
13209;BME280;6669;42.678;23.332;2023-04-08T02:25:13;94667.75;;;4.64;100.00
13209;BME280;6669;42.678;23.332;2023-04-08T02:27:42;94653.13;;;4.65;100.00
13209;BME280;6669;42.678;23.332;2023-04-08T02:30:12;94663.94;;;4.78;100.00
13209;BME280;6669;42.678;23.332;2023-04-08T02:32:42;94661.91;;;4.72;100.00
13209;BME280;6669;42.678;23.332;2023-04-08T02:35:12;94657.31;;;4.66;100.00
13209;BME280;6669;42.678;23.332;2023-04-08T02:37:41;94659.09;;;4.75;100.00
13209;BME280;6669;42.678;23.332;2023-04-08T02:40:22;94659.63;;;4.79;100.00
13209;BME280;6669;42.678;23.332;2023-04-08T02:42:50;94660.44;;;4.69;100.00
13209;BME280;6669;42.678;23.332;2023-04-08T02:45:18;94663.16;;;4.78;100.00
13209;BME280;6669;42.678;23.332;2023-04-08T02:47:48;94661.66;;;4.75;100.00
13209;BME280;6669;42.678;23.332;2023-04-08T02:50:16;94662.59;;;4.74;100.00
13209;BME280;6669;42.678;23.332;2023-04-08T02:52:44;94664.91;;;4.77;100.00
13209;BME280;6669;42.678;23.332;2023-04-08T02:55:11;94658.94;;;4.77;100.00
13209;BME280;6669;42.678;23.332;2023-04-08T02:57:42;94657.31;;;4.75;100.00
13209;BME280;6669;42.678;23.332;2023-04-08T03:00:11;94660.97;;;4.73;100.00
13209;BME280;6669;42.678;23.332;2023-04-08T03:02:39;94659.47;;;4.70;100.00
13209;BME280;6669;42.678;23.332;2023-04-08T03:05:09;94668.28;;;4.68;100.00
13209;BME280;6669;42.678;23.332;2023-04-08T03:07:37;94661.78;;;4.64;100.00
13209;BME280;6669;42.678;23.332;2023-04-08T03:10:06;94659.47;;;4.70;100.00
13209;BME280;6669;42.678;23.332;2023-04-08T03:12:34;94657.59;;;4.63;100.00
13209;BME280;6669;42.678;23.332;2023-04-08T03:15:03;94663.25;;;4.56;100.00
13209;BME280;6669;42.678;23.332;2023-04-08T03:17:32;94660.28;;;4.61;100.00
13209;BME280;6669;42.678;23.332;2023-04-08T03:20:00;94648.22;;;4.62;100.00
13209;BME280;6669;42.678;23.332;2023-04-08T03:22:32;94657.16;;;4.57;100.00
13209;BME280;6669;42.678;23.332;2023-04-08T03:25:00;94662.06;;;4.51;100.00
13209;BME280;6669;42.678;23.332;2023-04-08T03:27:28;94660.69;;;4.56;100.00
13209;BME280;6669;42.678;23.332;2023-04-08T03:29:56;94661.22;;;4.50;100.00
13209;BME280;6669;42.678;23.332;2023-04-08T03:32:24;94659.59;;;4.59;100.00
13209;BME280;6669;42.678;23.332;2023-04-08T03:34:52;94661.66;;;4.65;100.00
13209;BME280;6669;42.678;23.332;2023-04-08T03:37:20;94668.03;;;4.71;100.00
13209;BME280;6669;42.678;23.332;2023-04-08T03:39:49;94671.66;;;4.68;100.00
13209;BME280;6669;42.678;23.332;2023-04-08T03:42:17;94668.81;;;4.62;100.00
13209;BME280;6669;42.678;23.332;2023-04-08T03:44:45;94666.50;;;4.68;100.00
13209;BME280;6669;42.678;23.332;2023-04-08T03:47:13;94674.25;;;4.58;100.00
13209;BME280;6669;42.678;23.332;2023-04-08T03:49:41;94665.16;;;4.64;100.00
13209;BME280;6669;42.678;23.332;2023-04-08T03:52:09;94666.41;;;4.70;100.00
13209;BME280;6669;42.678;23.332;2023-04-08T03:54:37;94667.47;;;4.57;100.00
13209;BME280;6669;42.678;23.332;2023-04-08T03:57:06;94652.97;;;4.56;100.00
13209;BME280;6669;42.678;23.332;2023-04-08T03:59:34;94658.00;;;4.68;100.00
13209;BME280;6669;42.678;23.332;2023-04-08T04:02:03;94665.59;;;4.60;100.00
13209;BME280;6669;42.678;23.332;2023-04-08T04:04:31;94660.53;;;4.58;100.00
13209;BME280;6669;42.678;23.332;2023-04-08T04:06:59;94664.91;;;4.57;100.00
13209;BME280;6669;42.678;23.332;2023-04-08T04:09:27;94655.69;;;4.65;100.00
13209;BME280;6669;42.678;23.332;2023-04-08T04:11:55;94652.56;;;4.61;100.00
13209;BME280;6669;42.678;23.332;2023-04-08T04:14:24;94652.81;;;4.58;100.00
13209;BME280;6669;42.678;23.332;2023-04-08T04:16:52;94661.78;;;4.64;100.00
13209;BME280;6669;42.678;23.332;2023-04-08T04:19:20;94664.50;;;4.62;100.00
13209;BME280;6669;42.678;23.332;2023-04-08T04:21:48;94666.81;;;4.75;100.00
13209;BME280;6669;42.678;23.332;2023-04-08T04:24:18;94670.03;;;4.77;100.00
13209;BME280;6669;42.678;23.332;2023-04-08T04:26:46;94680.09;;;4.80;100.00
13209;BME280;6669;42.678;23.332;2023-04-08T04:29:14;94679.25;;;4.80;100.00
13209;BME280;6669;42.678;23.332;2023-04-08T04:31:43;94677.78;;;4.77;100.00
13209;BME280;6669;42.678;23.332;2023-04-08T04:34:11;94682.66;;;4.70;100.00
13209;BME280;6669;42.678;23.332;2023-04-08T04:36:39;94681.84;;;4.70;100.00
13209;BME280;6669;42.678;23.332;2023-04-08T04:39:07;94685.91;;;4.63;100.00
13209;BME280;6669;42.678;23.332;2023-04-08T04:41:35;94680.06;;;4.70;100.00
13209;BME280;6669;42.678;23.332;2023-04-08T04:44:06;94675.34;;;4.75;100.00
13209;BME280;6669;42.678;23.332;2023-04-08T04:46:34;94683.75;;;4.78;100.00
13209;BME280;6669;42.678;23.332;2023-04-08T04:49:03;94671.03;;;4.76;100.00
13209;BME280;6669;42.678;23.332;2023-04-08T04:51:31;94675.19;;;4.77;100.00
13209;BME280;6669;42.678;23.332;2023-04-08T04:53:59;94672.63;;;4.77;100.00
13209;BME280;6669;42.678;23.332;2023-04-08T04:56:27;94680.22;;;4.69;100.00
13209;BME280;6669;42.678;23.332;2023-04-08T04:58:55;94675.06;;;4.69;100.00
13209;BME280;6669;42.678;23.332;2023-04-08T05:01:23;94678.84;;;4.74;100.00
13209;BME280;6669;42.678;23.332;2023-04-08T05:03:51;94688.38;;;4.84;100.00
13209;BME280;6669;42.678;23.332;2023-04-08T05:06:23;94681.59;;;4.93;100.00
13209;BME280;6669;42.678;23.332;2023-04-08T05:08:52;94686.59;;;4.94;100.00
13209;BME280;6669;42.678;23.332;2023-04-08T05:11:19;94691.06;;;5.02;100.00
13209;BME280;6669;42.678;23.332;2023-04-08T05:13:48;94685.25;;;5.10;100.00
13209;BME280;6669;42.678;23.332;2023-04-08T05:16:16;94690.50;;;5.18;100.00
13209;BME280;6669;42.678;23.332;2023-04-08T05:18:44;94693.78;;;5.20;100.00
13209;BME280;6669;42.678;23.332;2023-04-08T05:21:13;94688.22;;;5.24;100.00
13209;BME280;6669;42.678;23.332;2023-04-08T05:23:46;94676.00;;;5.27;100.00
13209;BME280;6669;42.678;23.332;2023-04-08T05:26:14;94684.41;;;5.38;100.00
13209;BME280;6669;42.678;23.332;2023-04-08T05:28:44;94685.22;;;5.39;100.00
13209;BME280;6669;42.678;23.332;2023-04-08T05:31:14;94688.44;;;5.51;100.00
13209;BME280;6669;42.678;23.332;2023-04-08T05:33:42;94684.25;;;5.50;100.00
13209;BME280;6669;42.678;23.332;2023-04-08T05:36:11;94692.09;;;5.58;100.00
13209;BME280;6669;42.678;23.332;2023-04-08T05:38:39;94668.59;;;5.61;100.00
13209;BME280;6669;42.678;23.332;2023-04-08T05:41:10;94700.97;;;5.83;100.00
13209;BME280;6669;42.678;23.332;2023-04-08T05:43:38;94686.03;;;5.87;100.00
13209;BME280;6669;42.678;23.332;2023-04-08T05:46:06;94685.59;;;5.92;100.00
13209;BME280;6669;42.678;23.332;2023-04-08T05:48:35;94690.19;;;6.08;100.00
13209;BME280;6669;42.678;23.332;2023-04-08T05:51:03;94688.53;;;6.16;100.00
13209;BME280;6669;42.678;23.332;2023-04-08T05:53:31;94682.03;;;6.12;100.00
13209;BME280;6669;42.678;23.332;2023-04-08T05:55:59;94683.44;;;6.25;100.00
13209;BME280;6669;42.678;23.332;2023-04-08T05:58:29;94682.81;;;6.22;100.00
13209;BME280;6669;42.678;23.332;2023-04-08T06:00:57;94689.97;;;6.29;100.00
13209;BME280;6669;42.678;23.332;2023-04-08T06:03:25;94686.91;;;6.43;100.00
13209;BME280;6669;42.678;23.332;2023-04-08T06:05:53;94678.84;;;6.46;100.00
13209;BME280;6669;42.678;23.332;2023-04-08T06:08:21;94680.28;;;6.59;100.00
13209;BME280;6669;42.678;23.332;2023-04-08T06:10:50;94681.69;;;6.71;100.00
13209;BME280;6669;42.678;23.332;2023-04-08T06:13:18;94672.47;;;6.68;100.00
13209;BME280;6669;42.678;23.332;2023-04-08T06:15:48;94675.13;;;6.77;100.00
13209;BME280;6669;42.678;23.332;2023-04-08T06:18:16;94682.06;;;6.94;100.00
13209;BME280;6669;42.678;23.332;2023-04-08T06:20:44;94677.50;;;6.88;100.00
13209;BME280;6669;42.678;23.332;2023-04-08T06:23:12;94670.84;;;6.85;100.00
13209;BME280;6669;42.678;23.332;2023-04-08T06:25:40;94677.91;;;6.83;100.00
13209;BME280;6669;42.678;23.332;2023-04-08T06:28:08;94688.19;;;6.93;100.00
13209;BME280;6669;42.678;23.332;2023-04-08T06:30:36;94674.25;;;7.04;100.00
13209;BME280;6669;42.678;23.332;2023-04-08T06:33:06;94682.50;;;7.26;100.00
13209;BME280;6669;42.678;23.332;2023-04-08T06:35:34;94674.03;;;7.42;100.00
13209;BME280;6669;42.678;23.332;2023-04-08T06:38:03;94682.97;;;7.47;100.00
13209;BME280;6669;42.678;23.332;2023-04-08T06:40:31;94683.34;;;7.52;100.00
13209;BME280;6669;42.678;23.332;2023-04-08T06:42:59;94679.31;;;7.58;100.00
13209;BME280;6669;42.678;23.332;2023-04-08T06:45:27;94691.28;;;7.59;100.00
13209;BME280;6669;42.678;23.332;2023-04-08T06:47:55;94692.75;;;7.62;100.00
13209;BME280;6669;42.678;23.332;2023-04-08T06:50:24;94689.38;;;7.61;100.00
13209;BME280;6669;42.678;23.332;2023-04-08T06:52:52;94686.63;;;7.63;100.00
13209;BME280;6669;42.678;23.332;2023-04-08T06:55:20;94689.25;;;7.71;100.00
13209;BME280;6669;42.678;23.332;2023-04-08T06:57:48;94696.25;;;7.79;100.00
13209;BME280;6669;42.678;23.332;2023-04-08T07:00:17;94680.09;;;7.77;100.00
13209;BME280;6669;42.678;23.332;2023-04-08T07:02:45;94689.31;;;7.79;100.00
13209;BME280;6669;42.678;23.332;2023-04-08T07:05:13;94685.16;;;7.87;100.00
13209;BME280;6669;42.678;23.332;2023-04-08T07:07:43;94687.38;;;7.81;100.00
13209;BME280;6669;42.678;23.332;2023-04-08T07:10:12;94676.75;;;7.93;100.00
13209;BME280;6669;42.678;23.332;2023-04-08T07:12:40;94683.63;;;8.02;100.00
13209;BME280;6669;42.678;23.332;2023-04-08T07:15:08;94677.84;;;8.08;100.00
13209;BME280;6669;42.678;23.332;2023-04-08T07:17:37;94688.03;;;8.18;100.00
13209;BME280;6669;42.678;23.332;2023-04-08T07:20:06;94692.78;;;8.23;100.00
13209;BME280;6669;42.678;23.332;2023-04-08T07:22:34;94688.28;;;8.33;100.00
13209;BME280;6669;42.678;23.332;2023-04-08T07:25:05;94701.47;;;8.13;100.00
13209;BME280;6669;42.678;23.332;2023-04-08T07:27:33;94695.97;;;8.16;100.00
13209;BME280;6669;42.678;23.332;2023-04-08T07:30:01;94702.03;;;8.33;100.00
13209;BME280;6669;42.678;23.332;2023-04-08T07:32:29;94704.56;;;8.52;100.00
13209;BME280;6669;42.678;23.332;2023-04-08T07:34:58;94690.53;;;8.71;100.00
13209;BME280;6669;42.678;23.332;2023-04-08T07:37:26;94705.97;;;8.89;100.00
13209;BME280;6669;42.678;23.332;2023-04-08T07:39:54;94668.69;;;8.81;100.00
13209;BME280;6669;42.678;23.332;2023-04-08T07:42:23;94695.59;;;9.13;100.00
13209;BME280;6669;42.678;23.332;2023-04-08T07:44:51;94701.44;;;9.15;100.00
13209;BME280;6669;42.678;23.332;2023-04-08T07:47:19;94715.41;;;9.23;100.00
13209;BME280;6669;42.678;23.332;2023-04-08T07:49:47;94711.34;;;9.28;100.00
13209;BME280;6669;42.678;23.332;2023-04-08T07:52:15;94715.75;;;9.44;100.00
13209;BME280;6669;42.678;23.332;2023-04-08T07:54:44;94722.38;;;9.55;100.00
13209;BME280;6669;42.678;23.332;2023-04-08T07:57:12;94712.81;;;9.39;100.00
13209;BME280;6669;42.678;23.332;2023-04-08T07:59:41;94709.88;;;9.51;100.00
13209;BME280;6669;42.678;23.332;2023-04-08T08:02:09;94715.06;;;9.67;100.00
13209;BME280;6669;42.678;23.332;2023-04-08T08:04:37;94723.97;;;9.81;100.00
13209;BME280;6669;42.678;23.332;2023-04-08T08:07:14;94721.22;;;9.74;100.00
13209;BME280;6669;42.678;23.332;2023-04-08T08:09:42;94728.19;;;9.82;100.00
13209;BME280;6669;42.678;23.332;2023-04-08T08:12:10;94723.81;;;9.74;100.00
13209;BME280;6669;42.678;23.332;2023-04-08T08:14:38;94728.28;;;10.05;100.00
13209;BME280;6669;42.678;23.332;2023-04-08T08:17:07;94727.34;;;9.98;100.00
13209;BME280;6669;42.678;23.332;2023-04-08T08:19:35;94733.00;;;10.10;100.00
13209;BME280;6669;42.678;23.332;2023-04-08T08:22:03;94724.56;;;10.16;100.00
13209;BME280;6669;42.678;23.332;2023-04-08T08:24:31;94727.66;;;10.03;100.00
13209;BME280;6669;42.678;23.332;2023-04-08T08:26:59;94726.53;;;10.06;100.00
13209;BME280;6669;42.678;23.332;2023-04-08T08:29:29;94729.56;;;10.18;100.00
13209;BME280;6669;42.678;23.332;2023-04-08T08:31:57;94727.94;;;10.25;100.00
13209;BME280;6669;42.678;23.332;2023-04-08T08:34:27;94728.75;;;10.25;100.00
13209;BME280;6669;42.678;23.332;2023-04-08T08:36:56;94726.28;;;10.40;100.00
13209;BME280;6669;42.678;23.332;2023-04-08T08:39:24;94734.25;;;10.30;100.00
13209;BME280;6669;42.678;23.332;2023-04-08T08:41:52;94732.47;;;10.23;100.00
13209;BME280;6669;42.678;23.332;2023-04-08T08:44:22;94736.72;;;10.15;100.00
13209;BME280;6669;42.678;23.332;2023-04-08T08:46:50;94732.22;;;10.09;100.00
13209;BME280;6669;42.678;23.332;2023-04-08T08:49:18;94731.50;;;10.24;100.00
13209;BME280;6669;42.678;23.332;2023-04-08T08:51:48;94717.34;;;10.35;100.00
13209;BME280;6669;42.678;23.332;2023-04-08T08:54:17;94732.34;;;10.16;100.00
13209;BME280;6669;42.678;23.332;2023-04-08T08:56:45;94733.44;;;10.38;100.00
13209;BME280;6669;42.678;23.332;2023-04-08T08:59:14;94734.75;;;10.42;100.00
13209;BME280;6669;42.678;23.332;2023-04-08T09:01:43;94738.09;;;10.51;100.00
13209;BME280;6669;42.678;23.332;2023-04-08T09:04:13;94738.25;;;10.50;100.00
13209;BME280;6669;42.678;23.332;2023-04-08T09:06:44;94736.50;;;10.50;100.00
13209;BME280;6669;42.678;23.332;2023-04-08T09:09:16;94732.28;;;10.49;100.00
13209;BME280;6669;42.678;23.332;2023-04-08T09:11:45;94741.63;;;10.67;100.00
13209;BME280;6669;42.678;23.332;2023-04-08T09:14:22;94738.31;;;10.73;100.00
13209;BME280;6669;42.678;23.332;2023-04-08T09:16:51;94738.31;;;10.81;100.00
13209;BME280;6669;42.678;23.332;2023-04-08T09:19:20;94740.72;;;10.83;100.00
13209;BME280;6669;42.678;23.332;2023-04-08T09:22:03;94737.13;;;11.15;100.00
13209;BME280;6669;42.678;23.332;2023-04-08T09:24:33;94732.34;;;11.27;100.00
13209;BME280;6669;42.678;23.332;2023-04-08T09:27:03;94730.38;;;11.29;100.00
13209;BME280;6669;42.678;23.332;2023-04-08T09:29:31;94731.06;;;11.46;100.00
13209;BME280;6669;42.678;23.332;2023-04-08T09:32:07;94725.84;;;11.46;100.00
13209;BME280;6669;42.678;23.332;2023-04-08T09:34:34;94728.94;;;11.50;100.00
13209;BME280;6669;42.678;23.332;2023-04-08T09:37:03;94719.72;;;11.62;100.00
13209;BME280;6669;42.678;23.332;2023-04-08T09:39:32;94709.97;;;11.79;99.42
13209;BME280;6669;42.678;23.332;2023-04-08T09:42:04;94719.94;;;11.90;97.01
13209;BME280;6669;42.678;23.332;2023-04-08T09:44:34;94707.44;;;11.86;97.50
13209;BME280;6669;42.678;23.332;2023-04-08T09:47:07;94705.25;;;11.98;98.67
13209;BME280;6669;42.678;23.332;2023-04-08T09:49:37;94715.34;;;12.16;94.73
13209;BME280;6669;42.678;23.332;2023-04-08T09:52:10;94709.66;;;11.97;97.23
13209;BME280;6669;42.678;23.332;2023-04-08T09:54:46;94696.19;;;12.08;96.37
13209;BME280;6669;42.678;23.332;2023-04-08T09:57:21;94701.41;;;12.38;96.11
13209;BME280;6669;42.678;23.332;2023-04-08T09:59:56;94693.03;;;12.28;96.33
13209;BME280;6669;42.678;23.332;2023-04-08T10:02:29;94701.03;;;12.56;96.84
13209;BME280;6669;42.678;23.332;2023-04-08T10:04:59;94695.28;;;12.46;91.06
13209;BME280;6669;42.678;23.332;2023-04-08T10:07:33;94690.41;;;12.58;92.85
13209;BME280;6669;42.678;23.332;2023-04-08T10:10:03;94686.16;;;12.72;91.92
13209;BME280;6669;42.678;23.332;2023-04-08T10:12:32;94698.63;;;13.13;90.37
13209;BME280;6669;42.678;23.332;2023-04-08T10:15:23;94697.75;;;13.06;87.60
13209;BME280;6669;42.678;23.332;2023-04-08T10:17:51;94682.41;;;12.96;83.63
13209;BME280;6669;42.678;23.332;2023-04-08T10:20:41;94685.97;;;12.73;84.68
13209;BME280;6669;42.678;23.332;2023-04-08T10:23:11;94680.69;;;12.67;86.67
13209;BME280;6669;42.678;23.332;2023-04-08T10:25:42;94689.88;;;12.33;88.38
13209;BME280;6669;42.678;23.332;2023-04-08T10:28:24;94681.47;;;12.16;92.11
13209;BME280;6669;42.678;23.332;2023-04-08T10:30:53;94691.50;;;12.04;91.74
13209;BME280;6669;42.678;23.332;2023-04-08T10:33:24;94678.47;;;12.04;93.85
13209;BME280;6669;42.678;23.332;2023-04-08T10:35:59;94685.56;;;12.10;92.72
13209;BME280;6669;42.678;23.332;2023-04-08T10:38:28;94681.09;;;12.19;91.77
13209;BME280;6669;42.678;23.332;2023-04-08T10:40:59;94678.22;;;12.14;91.70
13209;BME280;6669;42.678;23.332;2023-04-08T10:43:32;94675.41;;;12.15;91.22
13209;BME280;6669;42.678;23.332;2023-04-08T10:46:00;94667.00;;;11.98;88.94
13209;BME280;6669;42.678;23.332;2023-04-08T10:48:28;94664.38;;;12.13;92.12
13209;BME280;6669;42.678;23.332;2023-04-08T10:50:58;94663.41;;;12.14;94.36
13209;BME280;6669;42.678;23.332;2023-04-08T10:53:28;94667.06;;;12.71;93.17
13209;BME280;6669;42.678;23.332;2023-04-08T10:56:05;94661.56;;;13.24;89.65
13209;BME280;6669;42.678;23.332;2023-04-08T10:58:33;94662.94;;;13.64;86.82
13209;BME280;6669;42.678;23.332;2023-04-08T11:01:03;94655.38;;;14.04;80.33
13209;BME280;6669;42.678;23.332;2023-04-08T11:03:33;94657.78;;;14.05;79.05
13209;BME280;6669;42.678;23.332;2023-04-08T11:06:02;94649.69;;;13.65;78.44
13209;BME280;6669;42.678;23.332;2023-04-08T11:08:31;94644.44;;;13.37;79.49
13209;BME280;6669;42.678;23.332;2023-04-08T11:10:59;94647.00;;;13.08;79.11
13209;BME280;6669;42.678;23.332;2023-04-08T11:13:29;94635.78;;;12.71;80.81
13209;BME280;6669;42.678;23.332;2023-04-08T11:15:59;94626.94;;;12.51;82.05
13209;BME280;6669;42.678;23.332;2023-04-08T11:18:29;94642.16;;;12.69;84.44
13209;BME280;6669;42.678;23.332;2023-04-08T11:20:57;94636.59;;;12.72;85.58
13209;BME280;6669;42.678;23.332;2023-04-08T11:23:28;94637.16;;;12.89;83.67
13209;BME280;6669;42.678;23.332;2023-04-08T11:25:57;94632.44;;;13.43;82.22
13209;BME280;6669;42.678;23.332;2023-04-08T11:28:25;94622.38;;;14.51;75.34
13209;BME280;6669;42.678;23.332;2023-04-08T11:30:54;94609.66;;;15.10;72.91
13209;BME280;6669;42.678;23.332;2023-04-08T11:33:24;94621.34;;;15.48;69.08
13209;BME280;6669;42.678;23.332;2023-04-08T11:35:52;94617.94;;;15.34;67.92
13209;BME280;6669;42.678;23.332;2023-04-08T11:38:21;94614.88;;;15.84;69.09
13209;BME280;6669;42.678;23.332;2023-04-08T11:40:53;94604.22;;;15.52;67.43
13209;BME280;6669;42.678;23.332;2023-04-08T11:43:25;94616.72;;;15.83;67.29
13209;BME280;6669;42.678;23.332;2023-04-08T11:45:55;94610.25;;;15.86;64.95
13209;BME280;6669;42.678;23.332;2023-04-08T11:48:24;94592.31;;;16.42;64.07
13209;BME280;6669;42.678;23.332;2023-04-08T11:51:02;94595.66;;;17.01;61.19
13209;BME280;6669;42.678;23.332;2023-04-08T11:53:30;94596.09;;;17.48;60.77
13209;BME280;6669;42.678;23.332;2023-04-08T11:56:14;94595.44;;;17.97;58.10
13209;BME280;6669;42.678;23.332;2023-04-08T11:58:43;94578.22;;;17.57;56.58
13209;BME280;6669;42.678;23.332;2023-04-08T12:01:12;94583.25;;;17.59;56.97
13209;BME280;6669;42.678;23.332;2023-04-08T12:03:53;94583.38;;;17.71;56.76
13209;BME280;6669;42.678;23.332;2023-04-08T12:06:22;94563.47;;;17.56;56.28
13209;BME280;6669;42.678;23.332;2023-04-08T12:08:50;94578.34;;;17.19;57.13
13209;BME280;6669;42.678;23.332;2023-04-08T12:11:18;94568.16;;;17.29;58.47
13209;BME280;6669;42.678;23.332;2023-04-08T12:13:46;94573.94;;;17.81;57.51
13209;BME280;6669;42.678;23.332;2023-04-08T12:16:18;94568.22;;;17.66;57.33
13209;BME280;6669;42.678;23.332;2023-04-08T12:18:46;94571.88;;;18.09;58.17
13209;BME280;6669;42.678;23.332;2023-04-08T12:21:16;94569.94;;;18.35;56.68
13209;BME280;6669;42.678;23.332;2023-04-08T12:23:44;94562.50;;;18.13;55.98
13209;BME280;6669;42.678;23.332;2023-04-08T12:26:16;94559.00;;;17.82;55.67
13209;BME280;6669;42.678;23.332;2023-04-08T12:28:45;94568.22;;;17.47;55.51
13209;BME280;6669;42.678;23.332;2023-04-08T12:31:13;94579.13;;;16.16;58.79
13209;BME280;6669;42.678;23.332;2023-04-08T12:33:42;94563.53;;;15.02;59.20
13209;BME280;6669;42.678;23.332;2023-04-08T12:36:10;94579.19;;;14.14;61.95
13209;BME280;6669;42.678;23.332;2023-04-08T12:38:39;94569.72;;;14.06;64.36
13209;BME280;6669;42.678;23.332;2023-04-08T12:41:07;94564.13;;;13.74;66.40
13209;BME280;6669;42.678;23.332;2023-04-08T12:43:35;94545.38;;;13.07;67.27
13209;BME280;6669;42.678;23.332;2023-04-08T12:46:04;94555.03;;;13.06;68.54
13209;BME280;6669;42.678;23.332;2023-04-08T12:48:32;94564.75;;;12.91;70.08
13209;BME280;6669;42.678;23.332;2023-04-08T12:51:02;94557.47;;;12.86;70.07
13209;BME280;6669;42.678;23.332;2023-04-08T12:53:30;94557.22;;;12.81;72.91
13209;BME280;6669;42.678;23.332;2023-04-08T12:55:58;94564.63;;;12.78;73.97
13209;BME280;6669;42.678;23.332;2023-04-08T12:58:26;94565.88;;;12.60;76.30
13209;BME280;6669;42.678;23.332;2023-04-08T13:00:54;94579.06;;;12.58;78.91
13209;BME280;6669;42.678;23.332;2023-04-08T13:03:22;94575.09;;;12.04;81.28
13209;BME280;6669;42.678;23.332;2023-04-08T13:05:51;94579.56;;;12.10;82.37
13209;BME280;6669;42.678;23.332;2023-04-08T13:08:20;94583.44;;;12.15;83.41
13209;BME280;6669;42.678;23.332;2023-04-08T13:10:48;94567.00;;;12.14;84.84